sensor_id;sensor_type;location;lat;lon;timestamp;P1;durP1;ratioP1;P2;durP2;ratioP2
10142;SDS011;5112;54.088;13.446;2023-10-09T00:06:00;1.07;;;0.97;;
10142;SDS011;5112;54.088;13.446;2023-10-09T00:16:06;1.13;;;1.03;;
10142;SDS011;5112;54.088;13.446;2023-10-09T00:26:14;1.63;;;1.33;;
10142;SDS011;5112;54.088;13.446;2023-10-09T00:36:18;1.07;;;0.93;;
10142;SDS011;5112;54.088;13.446;2023-10-09T00:46:28;1.07;;;0.97;;
10142;SDS011;5112;54.088;13.446;2023-10-09T00:56:31;1.70;;;1.20;;
10142;SDS011;5112;54.088;13.446;2023-10-09T01:06:40;1.60;;;0.87;;
10142;SDS011;5112;54.088;13.446;2023-10-09T01:16:46;1.40;;;1.10;;
10142;SDS011;5112;54.088;13.446;2023-10-09T01:26:49;0.80;;;0.80;;
10142;SDS011;5112;54.088;13.446;2023-10-09T01:36:54;1.80;;;1.03;;
10142;SDS011;5112;54.088;13.446;2023-10-09T01:46:57;1.17;;;0.97;;
10142;SDS011;5112;54.088;13.446;2023-10-09T01:56:59;1.40;;;1.00;;
10142;SDS011;5112;54.088;13.446;2023-10-09T02:07:06;1.03;;;0.90;;
10142;SDS011;5112;54.088;13.446;2023-10-09T02:17:09;1.53;;;1.00;;
10142;SDS011;5112;54.088;13.446;2023-10-09T02:27:19;0.97;;;0.90;;
10142;SDS011;5112;54.088;13.446;2023-10-09T02:37:40;1.40;;;1.20;;
10142;SDS011;5112;54.088;13.446;2023-10-09T02:47:43;1.40;;;0.87;;
10142;SDS011;5112;54.088;13.446;2023-10-09T02:57:48;1.07;;;0.97;;
10142;SDS011;5112;54.088;13.446;2023-10-09T03:07:53;1.47;;;1.10;;
10142;SDS011;5112;54.088;13.446;2023-10-09T03:17:55;1.70;;;1.00;;
10142;SDS011;5112;54.088;13.446;2023-10-09T03:27:58;1.47;;;1.20;;
10142;SDS011;5112;54.088;13.446;2023-10-09T03:38:00;2.13;;;1.40;;
10142;SDS011;5112;54.088;13.446;2023-10-09T03:48:13;3.07;;;1.80;;
10142;SDS011;5112;54.088;13.446;2023-10-09T03:58:21;1.90;;;1.43;;
10142;SDS011;5112;54.088;13.446;2023-10-09T04:08:24;1.37;;;1.27;;
10142;SDS011;5112;54.088;13.446;2023-10-09T04:18:30;1.57;;;1.40;;
10142;SDS011;5112;54.088;13.446;2023-10-09T04:28:34;2.13;;;1.77;;
10142;SDS011;5112;54.088;13.446;2023-10-09T04:38:36;1.70;;;1.60;;
10142;SDS011;5112;54.088;13.446;2023-10-09T04:48:39;1.73;;;1.60;;
10142;SDS011;5112;54.088;13.446;2023-10-09T04:58:45;1.90;;;1.70;;
10142;SDS011;5112;54.088;13.446;2023-10-09T05:08:50;1.77;;;1.50;;
10142;SDS011;5112;54.088;13.446;2023-10-09T05:18:55;2.40;;;2.20;;
10142;SDS011;5112;54.088;13.446;2023-10-09T05:29:00;2.37;;;1.73;;
10142;SDS011;5112;54.088;13.446;2023-10-09T05:39:19;2.20;;;1.83;;
10142;SDS011;5112;54.088;13.446;2023-10-09T05:49:42;2.50;;;2.10;;
10142;SDS011;5112;54.088;13.446;2023-10-09T05:59:57;2.30;;;1.70;;
10142;SDS011;5112;54.088;13.446;2023-10-09T06:10:18;1.83;;;1.70;;
10142;SDS011;5112;54.088;13.446;2023-10-09T06:20:37;3.57;;;2.17;;
10142;SDS011;5112;54.088;13.446;2023-10-09T06:31:08;2.13;;;1.87;;
10142;SDS011;5112;54.088;13.446;2023-10-09T06:41:29;3.53;;;2.33;;
10142;SDS011;5112;54.088;13.446;2023-10-09T06:51:40;2.67;;;1.60;;
10142;SDS011;5112;54.088;13.446;2023-10-09T07:01:42;3.23;;;1.80;;
10142;SDS011;5112;54.088;13.446;2023-10-09T07:11:45;3.10;;;1.93;;
10142;SDS011;5112;54.088;13.446;2023-10-09T07:22:09;3.10;;;1.90;;
10142;SDS011;5112;54.088;13.446;2023-10-09T07:32:24;1.80;;;1.70;;
10142;SDS011;5112;54.088;13.446;2023-10-09T07:42:27;2.57;;;2.10;;
10142;SDS011;5112;54.088;13.446;2023-10-09T07:52:42;2.20;;;2.00;;
10142;SDS011;5112;54.088;13.446;2023-10-09T08:02:45;2.63;;;1.97;;
10142;SDS011;5112;54.088;13.446;2023-10-09T08:12:49;2.20;;;1.63;;
10142;SDS011;5112;54.088;13.446;2023-10-09T08:23:19;4.87;;;2.50;;
10142;SDS011;5112;54.088;13.446;2023-10-09T08:33:30;3.07;;;2.47;;
10142;SDS011;5112;54.088;13.446;2023-10-09T08:43:43;3.77;;;2.63;;
10142;SDS011;5112;54.088;13.446;2023-10-09T08:53:53;3.33;;;2.57;;
10142;SDS011;5112;54.088;13.446;2023-10-09T09:03:56;3.07;;;2.77;;
10142;SDS011;5112;54.088;13.446;2023-10-09T09:14:01;4.03;;;2.67;;
10142;SDS011;5112;54.088;13.446;2023-10-09T09:24:06;3.13;;;2.27;;
10142;SDS011;5112;54.088;13.446;2023-10-09T09:34:27;2.67;;;2.43;;
10142;SDS011;5112;54.088;13.446;2023-10-09T09:44:33;2.73;;;2.47;;
10142;SDS011;5112;54.088;13.446;2023-10-09T09:54:44;1.97;;;1.87;;
10142;SDS011;5112;54.088;13.446;2023-10-09T10:04:51;3.30;;;2.17;;
10142;SDS011;5112;54.088;13.446;2023-10-09T10:14:58;2.60;;;2.17;;
10142;SDS011;5112;54.088;13.446;2023-10-09T10:25:08;2.67;;;2.27;;
10142;SDS011;5112;54.088;13.446;2023-10-09T10:35:35;4.07;;;2.50;;
10142;SDS011;5112;54.088;13.446;2023-10-09T10:45:46;2.50;;;2.20;;
10142;SDS011;5112;54.088;13.446;2023-10-09T10:55:54;2.20;;;2.00;;
10142;SDS011;5112;54.088;13.446;2023-10-09T11:06:01;2.77;;;2.00;;
10142;SDS011;5112;54.088;13.446;2023-10-09T11:16:13;2.03;;;1.70;;
10142;SDS011;5112;54.088;13.446;2023-10-09T11:26:18;2.73;;;1.90;;
10142;SDS011;5112;54.088;13.446;2023-10-09T11:36:26;2.17;;;1.90;;
10142;SDS011;5112;54.088;13.446;2023-10-09T11:46:32;2.90;;;1.87;;
10142;SDS011;5112;54.088;13.446;2023-10-09T11:56:38;1.97;;;1.87;;
10142;SDS011;5112;54.088;13.446;2023-10-09T12:06:41;2.83;;;1.80;;
10142;SDS011;5112;54.088;13.446;2023-10-09T12:16:44;2.20;;;1.83;;
10142;SDS011;5112;54.088;13.446;2023-10-09T12:26:51;3.67;;;1.97;;
10142;SDS011;5112;54.088;13.446;2023-10-09T12:36:53;2.87;;;1.87;;
10142;SDS011;5112;54.088;13.446;2023-10-09T12:46:56;2.33;;;2.13;;
10142;SDS011;5112;54.088;13.446;2023-10-09T12:56:58;3.47;;;1.97;;
10142;SDS011;5112;54.088;13.446;2023-10-09T13:07:00;2.40;;;2.13;;
10142;SDS011;5112;54.088;13.446;2023-10-09T13:17:04;2.47;;;2.27;;
10142;SDS011;5112;54.088;13.446;2023-10-09T13:27:11;3.23;;;2.70;;
10142;SDS011;5112;54.088;13.446;2023-10-09T13:37:14;2.23;;;2.07;;
10142;SDS011;5112;54.088;13.446;2023-10-09T13:47:23;3.63;;;2.53;;
10142;SDS011;5112;54.088;13.446;2023-10-09T13:57:31;2.30;;;2.20;;
10142;SDS011;5112;54.088;13.446;2023-10-09T14:07:34;2.73;;;2.33;;
10142;SDS011;5112;54.088;13.446;2023-10-09T14:17:36;3.80;;;2.70;;
10142;SDS011;5112;54.088;13.446;2023-10-09T14:27:43;3.97;;;2.60;;
10142;SDS011;5112;54.088;13.446;2023-10-09T14:37:48;2.87;;;2.13;;
10142;SDS011;5112;54.088;13.446;2023-10-09T14:47:51;4.17;;;2.97;;
10142;SDS011;5112;54.088;13.446;2023-10-09T14:57:54;4.90;;;3.40;;
10142;SDS011;5112;54.088;13.446;2023-10-09T15:07:57;4.03;;;3.30;;
10142;SDS011;5112;54.088;13.446;2023-10-09T15:17:58;5.30;;;3.50;;
10142;SDS011;5112;54.088;13.446;2023-10-09T15:28:04;3.57;;;2.87;;
10142;SDS011;5112;54.088;13.446;2023-10-09T15:38:06;3.57;;;3.20;;
10142;SDS011;5112;54.088;13.446;2023-10-09T15:48:13;4.53;;;3.10;;
10142;SDS011;5112;54.088;13.446;2023-10-09T15:58:15;3.87;;;3.23;;
10142;SDS011;5112;54.088;13.446;2023-10-09T16:08:18;3.90;;;3.53;;
10142;SDS011;5112;54.088;13.446;2023-10-09T16:18:22;3.83;;;3.10;;
10142;SDS011;5112;54.088;13.446;2023-10-09T16:28:25;3.80;;;3.50;;
10142;SDS011;5112;54.088;13.446;2023-10-09T16:38:27;4.47;;;3.40;;
10142;SDS011;5112;54.088;13.446;2023-10-09T16:48:30;3.73;;;3.33;;
10142;SDS011;5112;54.088;13.446;2023-10-09T16:58:32;3.60;;;3.30;;
10142;SDS011;5112;54.088;13.446;2023-10-09T17:08:35;4.23;;;3.43;;
10142;SDS011;5112;54.088;13.446;2023-10-09T17:18:42;3.63;;;3.33;;
10142;SDS011;5112;54.088;13.446;2023-10-09T17:28:47;3.33;;;3.03;;
10142;SDS011;5112;54.088;13.446;2023-10-09T17:38:48;3.47;;;2.90;;
10142;SDS011;5112;54.088;13.446;2023-10-09T17:48:52;3.20;;;3.00;;
10142;SDS011;5112;54.088;13.446;2023-10-09T17:58:53;3.10;;;2.90;;
10142;SDS011;5112;54.088;13.446;2023-10-09T18:08:56;4.63;;;3.60;;
10142;SDS011;5112;54.088;13.446;2023-10-09T18:18:58;4.50;;;4.10;;
10142;SDS011;5112;54.088;13.446;2023-10-09T18:29:02;4.73;;;4.00;;
10142;SDS011;5112;54.088;13.446;2023-10-09T18:39:04;4.80;;;4.37;;
10142;SDS011;5112;54.088;13.446;2023-10-09T18:49:09;3.80;;;3.50;;
10142;SDS011;5112;54.088;13.446;2023-10-09T18:59:12;3.80;;;3.50;;
10142;SDS011;5112;54.088;13.446;2023-10-09T19:09:15;3.40;;;3.10;;
10142;SDS011;5112;54.088;13.446;2023-10-09T19:19:20;4.03;;;3.63;;
10142;SDS011;5112;54.088;13.446;2023-10-09T19:29:26;5.37;;;3.80;;
10142;SDS011;5112;54.088;13.446;2023-10-09T19:39:33;4.23;;;3.60;;
10142;SDS011;5112;54.088;13.446;2023-10-09T19:50:23;4.60;;;3.90;;
10142;SDS011;5112;54.088;13.446;2023-10-09T20:00:25;4.90;;;4.43;;
10142;SDS011;5112;54.088;13.446;2023-10-09T20:10:33;4.17;;;3.80;;
10142;SDS011;5112;54.088;13.446;2023-10-09T20:20:38;4.50;;;4.10;;
10142;SDS011;5112;54.088;13.446;2023-10-09T20:30:41;5.77;;;5.27;;
10142;SDS011;5112;54.088;13.446;2023-10-09T20:40:42;5.00;;;4.47;;
10142;SDS011;5112;54.088;13.446;2023-10-09T20:50:45;7.67;;;5.27;;
10142;SDS011;5112;54.088;13.446;2023-10-09T21:00:48;5.60;;;4.97;;
10142;SDS011;5112;54.088;13.446;2023-10-09T21:10:51;6.03;;;5.37;;
10142;SDS011;5112;54.088;13.446;2023-10-09T21:20:53;5.00;;;4.50;;
10142;SDS011;5112;54.088;13.446;2023-10-09T21:30:56;6.63;;;5.93;;
10142;SDS011;5112;54.088;13.446;2023-10-09T21:40:57;7.80;;;6.67;;
10142;SDS011;5112;54.088;13.446;2023-10-09T21:51:02;8.43;;;6.37;;
10142;SDS011;5112;54.088;13.446;2023-10-09T22:01:04;9.43;;;7.80;;
10142;SDS011;5112;54.088;13.446;2023-10-09T22:11:09;8.43;;;7.57;;
10142;SDS011;5112;54.088;13.446;2023-10-09T22:21:11;8.87;;;7.63;;
10142;SDS011;5112;54.088;13.446;2023-10-09T22:31:17;8.40;;;7.60;;
10142;SDS011;5112;54.088;13.446;2023-10-09T22:41:21;8.50;;;7.27;;
10142;SDS011;5112;54.088;13.446;2023-10-09T22:51:24;8.97;;;6.90;;
10142;SDS011;5112;54.088;13.446;2023-10-09T23:01:29;7.67;;;6.97;;
10142;SDS011;5112;54.088;13.446;2023-10-09T23:11:33;8.57;;;7.67;;
10142;SDS011;5112;54.088;13.446;2023-10-09T23:21:35;8.37;;;7.47;;
10142;SDS011;5112;54.088;13.446;2023-10-09T23:31:58;8.83;;;7.93;;
10142;SDS011;5112;54.088;13.446;2023-10-09T23:42:21;10.33;;;9.23;;
10142;SDS011;5112;54.088;13.446;2023-10-09T23:52:28;10.67;;;9.73;;
